sensor_id;sensor_type;location;lat;lon;timestamp;noise_LAeq;noise_LA_min;noise_LA_max;noise_LA01;noise_LA95
69668;Laerm;66534;52.370;4.832;2023-03-14T00:00:12;51.24;46.31;66.41;;
69668;Laerm;66534;52.370;4.832;2023-03-14T00:00:44;50.60;46.81;64.40;;
69668;Laerm;66534;52.370;4.832;2023-03-14T00:01:16;55.20;48.86;73.09;;
69668;Laerm;66534;52.370;4.832;2023-03-14T00:01:47;51.33;47.61;59.04;;
69668;Laerm;66534;52.370;4.832;2023-03-14T00:02:19;49.66;45.58;58.76;;
69668;Laerm;66534;52.370;4.832;2023-03-14T00:02:53;48.60;46.45;58.42;;
69668;Laerm;66534;52.370;4.832;2023-03-14T00:03:23;49.72;45.46;66.53;;
69668;Laerm;66534;52.370;4.832;2023-03-14T00:03:54;48.56;45.26;53.89;;
69668;Laerm;66534;52.370;4.832;2023-03-14T00:04:24;50.46;46.68;55.25;;
69668;Laerm;66534;52.370;4.832;2023-03-14T00:04:55;53.34;49.33;66.22;;
69668;Laerm;66534;52.370;4.832;2023-03-14T00:05:27;50.37;47.77;53.38;;
69668;Laerm;66534;52.370;4.832;2023-03-14T00:06:02;49.31;44.76;53.53;;
69668;Laerm;66534;52.370;4.832;2023-03-14T00:06:32;49.36;45.74;53.99;;
69668;Laerm;66534;52.370;4.832;2023-03-14T00:07:04;54.55;45.67;66.80;;
69668;Laerm;66534;52.370;4.832;2023-03-14T00:07:36;49.94;46.27;57.25;;
69668;Laerm;66534;52.370;4.832;2023-03-14T00:08:06;46.99;44.54;50.55;;
69668;Laerm;66534;52.370;4.832;2023-03-14T00:08:37;49.57;44.26;53.79;;
69668;Laerm;66534;52.370;4.832;2023-03-14T00:09:07;53.13;47.20;64.95;;
69668;Laerm;66534;52.370;4.832;2023-03-14T00:09:38;50.49;45.78;57.56;;
69668;Laerm;66534;52.370;4.832;2023-03-14T00:10:12;48.74;45.44;61.65;;
69668;Laerm;66534;52.370;4.832;2023-03-14T00:10:42;47.25;44.83;54.77;;
69668;Laerm;66534;52.370;4.832;2023-03-14T00:11:15;50.91;45.44;61.36;;
69668;Laerm;66534;52.370;4.832;2023-03-14T00:11:46;48.38;45.68;55.96;;
69668;Laerm;66534;52.370;4.832;2023-03-14T00:12:17;52.24;46.79;59.65;;
69668;Laerm;66534;52.370;4.832;2023-03-14T00:12:47;54.57;48.77;66.93;;
69668;Laerm;66534;52.370;4.832;2023-03-14T00:13:17;51.02;47.89;62.92;;
69668;Laerm;66534;52.370;4.832;2023-03-14T00:13:51;48.48;45.90;54.54;;
69668;Laerm;66534;52.370;4.832;2023-03-14T00:14:23;47.06;44.42;53.36;;
69668;Laerm;66534;52.370;4.832;2023-03-14T00:14:53;46.71;44.30;52.77;;
69668;Laerm;66534;52.370;4.832;2023-03-14T00:15:23;46.10;43.17;54.49;;
69668;Laerm;66534;52.370;4.832;2023-03-14T00:15:54;46.39;43.53;50.18;;
69668;Laerm;66534;52.370;4.832;2023-03-14T00:16:25;50.17;45.42;63.97;;
69668;Laerm;66534;52.370;4.832;2023-03-14T00:16:55;51.30;47.00;66.02;;
69668;Laerm;66534;52.370;4.832;2023-03-14T00:17:27;46.86;43.27;52.49;;
69668;Laerm;66534;52.370;4.832;2023-03-14T00:17:57;47.78;44.65;53.05;;
69668;Laerm;66534;52.370;4.832;2023-03-14T00:18:28;47.70;43.73;55.69;;
69668;Laerm;66534;52.370;4.832;2023-03-14T00:18:59;52.23;45.56;64.24;;
69668;Laerm;66534;52.370;4.832;2023-03-14T00:19:29;50.58;46.96;56.19;;
69668;Laerm;66534;52.370;4.832;2023-03-14T00:20:00;50.34;44.10;55.36;;
69668;Laerm;66534;52.370;4.832;2023-03-14T00:20:38;48.46;45.50;54.20;;
69668;Laerm;66534;52.370;4.832;2023-03-14T00:21:09;48.75;45.52;54.55;;
69668;Laerm;66534;52.370;4.832;2023-03-14T00:21:40;50.51;47.74;56.91;;
69668;Laerm;66534;52.370;4.832;2023-03-14T00:22:10;52.71;45.90;67.95;;
69668;Laerm;66534;52.370;4.832;2023-03-14T00:22:41;46.35;44.22;50.81;;
69668;Laerm;66534;52.370;4.832;2023-03-14T00:23:12;52.05;44.73;61.48;;
69668;Laerm;66534;52.370;4.832;2023-03-14T00:23:43;59.08;50.60;74.48;;
69668;Laerm;66534;52.370;4.832;2023-03-14T00:24:13;50.85;46.34;58.16;;
69668;Laerm;66534;52.370;4.832;2023-03-14T00:24:44;51.18;44.59;66.17;;
69668;Laerm;66534;52.370;4.832;2023-03-14T00:25:14;50.31;45.56;63.56;;
69668;Laerm;66534;52.370;4.832;2023-03-14T00:25:45;50.52;46.88;61.87;;
69668;Laerm;66534;52.370;4.832;2023-03-14T00:26:18;50.77;45.53;59.66;;
69668;Laerm;66534;52.370;4.832;2023-03-14T00:26:49;48.84;46.16;57.25;;
69668;Laerm;66534;52.370;4.832;2023-03-14T00:27:19;47.56;43.94;54.15;;
69668;Laerm;66534;52.370;4.832;2023-03-14T00:27:51;56.62;47.97;74.41;;
69668;Laerm;66534;52.370;4.832;2023-03-14T00:28:21;51.23;44.71;60.30;;
69668;Laerm;66534;52.370;4.832;2023-03-14T00:28:53;45.99;43.10;50.45;;
69668;Laerm;66534;52.370;4.832;2023-03-14T00:29:23;44.86;42.52;49.13;;
69668;Laerm;66534;52.370;4.832;2023-03-14T00:29:54;47.92;43.40;56.77;;
69668;Laerm;66534;52.370;4.832;2023-03-14T00:30:24;48.02;44.24;58.69;;
69668;Laerm;66534;52.370;4.832;2023-03-14T00:30:55;49.58;43.52;68.75;;
69668;Laerm;66534;52.370;4.832;2023-03-14T00:31:25;46.77;42.07;57.43;;
69668;Laerm;66534;52.370;4.832;2023-03-14T00:31:56;44.66;42.12;51.79;;
69668;Laerm;66534;52.370;4.832;2023-03-14T00:32:26;45.69;43.35;49.68;;
69668;Laerm;66534;52.370;4.832;2023-03-14T00:32:57;48.11;43.73;52.74;;
69668;Laerm;66534;52.370;4.832;2023-03-14T00:33:27;52.74;47.80;68.67;;
69668;Laerm;66534;52.370;4.832;2023-03-14T00:33:57;50.98;45.19;62.60;;
69668;Laerm;66534;52.370;4.832;2023-03-14T00:34:29;46.88;43.70;54.20;;
69668;Laerm;66534;52.370;4.832;2023-03-14T00:35:00;46.32;43.99;51.81;;
69668;Laerm;66534;52.370;4.832;2023-03-14T00:35:30;47.05;43.31;57.80;;
69668;Laerm;66534;52.370;4.832;2023-03-14T00:36:07;52.74;47.73;67.58;;
69668;Laerm;66534;52.370;4.832;2023-03-14T00:36:39;48.09;43.17;59.69;;
69668;Laerm;66534;52.370;4.832;2023-03-14T00:37:09;44.26;41.97;48.33;;
69668;Laerm;66534;52.370;4.832;2023-03-14T00:37:39;43.66;41.04;49.02;;
69668;Laerm;66534;52.370;4.832;2023-03-14T00:38:10;47.25;42.63;52.73;;
69668;Laerm;66534;52.370;4.832;2023-03-14T00:38:41;46.53;42.21;53.83;;
69668;Laerm;66534;52.370;4.832;2023-03-14T00:39:12;48.12;44.50;55.48;;
69668;Laerm;66534;52.370;4.832;2023-03-14T00:39:42;48.63;42.95;66.18;;
69668;Laerm;66534;52.370;4.832;2023-03-14T00:40:13;52.27;42.66;67.59;;
69668;Laerm;66534;52.370;4.832;2023-03-14T00:40:43;45.17;42.41;49.09;;
69668;Laerm;66534;52.370;4.832;2023-03-14T00:41:16;50.98;44.49;61.24;;
69668;Laerm;66534;52.370;4.832;2023-03-14T00:41:47;52.94;46.71;65.70;;
69668;Laerm;66534;52.370;4.832;2023-03-14T00:42:17;47.74;44.91;57.93;;
69668;Laerm;66534;52.370;4.832;2023-03-14T00:42:48;50.42;43.50;60.12;;
69668;Laerm;66534;52.370;4.832;2023-03-14T00:43:19;54.69;44.02;67.36;;
69668;Laerm;66534;52.370;4.832;2023-03-14T00:43:51;48.13;44.19;56.62;;
69668;Laerm;66534;52.370;4.832;2023-03-14T00:44:22;45.86;42.63;50.22;;
69668;Laerm;66534;52.370;4.832;2023-03-14T00:44:52;50.43;44.03;65.55;;
69668;Laerm;66534;52.370;4.832;2023-03-14T00:45:23;47.85;43.50;59.37;;
69668;Laerm;66534;52.370;4.832;2023-03-14T00:45:53;51.10;42.55;59.23;;
69668;Laerm;66534;52.370;4.832;2023-03-14T00:46:23;54.74;48.46;71.88;;
69668;Laerm;66534;52.370;4.832;2023-03-14T00:46:54;46.83;41.77;50.64;;
69668;Laerm;66534;52.370;4.832;2023-03-14T00:47:24;47.34;43.54;59.09;;
69668;Laerm;66534;52.370;4.832;2023-03-14T00:47:55;45.67;42.70;53.86;;
69668;Laerm;66534;52.370;4.832;2023-03-14T00:48:26;48.59;44.29;60.32;;
69668;Laerm;66534;52.370;4.832;2023-03-14T00:48:56;46.52;43.71;53.90;;
69668;Laerm;66534;52.370;4.832;2023-03-14T00:49:26;45.51;41.53;60.11;;
69668;Laerm;66534;52.370;4.832;2023-03-14T00:49:57;44.35;41.17;50.47;;
69668;Laerm;66534;52.370;4.832;2023-03-14T00:50:27;47.17;42.45;62.68;;
69668;Laerm;66534;52.370;4.832;2023-03-14T00:50:58;48.72;45.06;59.59;;
69668;Laerm;66534;52.370;4.832;2023-03-14T00:51:28;50.76;43.94;64.97;;
69668;Laerm;66534;52.370;4.832;2023-03-14T00:51:58;44.53;41.20;58.72;;
69668;Laerm;66534;52.370;4.832;2023-03-14T00:52:29;44.06;40.22;57.38;;
69668;Laerm;66534;52.370;4.832;2023-03-14T00:52:59;44.11;40.67;54.87;;
69668;Laerm;66534;52.370;4.832;2023-03-14T00:53:30;49.03;43.58;57.04;;
69668;Laerm;66534;52.370;4.832;2023-03-14T00:54:00;48.79;44.92;54.06;;
69668;Laerm;66534;52.370;4.832;2023-03-14T00:54:31;47.86;44.92;55.44;;
69668;Laerm;66534;52.370;4.832;2023-03-14T00:55:01;50.07;44.35;63.62;;
69668;Laerm;66534;52.370;4.832;2023-03-14T00:55:36;45.47;42.29;54.99;;
69668;Laerm;66534;52.370;4.832;2023-03-14T00:56:09;44.32;41.70;51.29;;
69668;Laerm;66534;52.370;4.832;2023-03-14T00:56:40;45.07;41.81;53.83;;
69668;Laerm;66534;52.370;4.832;2023-03-14T00:57:10;48.51;43.00;53.07;;
69668;Laerm;66534;52.370;4.832;2023-03-14T00:57:40;45.93;42.31;55.65;;
69668;Laerm;66534;52.370;4.832;2023-03-14T00:58:12;48.60;42.53;53.84;;
69668;Laerm;66534;52.370;4.832;2023-03-14T00:58:43;44.67;42.38;49.22;;
69668;Laerm;66534;52.370;4.832;2023-03-14T00:59:13;45.21;41.54;56.39;;
69668;Laerm;66534;52.370;4.832;2023-03-14T00:59:45;44.76;41.52;48.47;;
69668;Laerm;66534;52.370;4.832;2023-03-14T01:00:16;44.61;42.34;50.86;;
69668;Laerm;66534;52.370;4.832;2023-03-14T01:00:46;48.05;43.07;52.82;;
69668;Laerm;66534;52.370;4.832;2023-03-14T01:01:18;46.23;43.30;51.81;;
69668;Laerm;66534;52.370;4.832;2023-03-14T01:01:48;49.80;44.78;60.45;;
69668;Laerm;66534;52.370;4.832;2023-03-14T01:02:19;45.95;43.69;54.57;;
69668;Laerm;66534;52.370;4.832;2023-03-14T01:02:49;53.42;44.81;63.09;;
69668;Laerm;66534;52.370;4.832;2023-03-14T01:03:20;56.85;51.48;71.25;;
69668;Laerm;66534;52.370;4.832;2023-03-14T01:03:52;50.83;46.04;58.76;;
69668;Laerm;66534;52.370;4.832;2023-03-14T01:04:22;52.49;48.06;57.69;;
69668;Laerm;66534;52.370;4.832;2023-03-14T01:04:53;51.13;46.08;64.35;;
69668;Laerm;66534;52.370;4.832;2023-03-14T01:05:24;54.33;45.53;68.79;;
69668;Laerm;66534;52.370;4.832;2023-03-14T01:05:54;50.12;45.57;55.67;;
69668;Laerm;66534;52.370;4.832;2023-03-14T01:06:27;49.40;46.25;55.48;;
69668;Laerm;66534;52.370;4.832;2023-03-14T01:06:57;55.43;45.18;70.39;;
69668;Laerm;66534;52.370;4.832;2023-03-14T01:07:28;47.24;44.89;53.35;;
69668;Laerm;66534;52.370;4.832;2023-03-14T01:07:58;47.28;44.59;53.92;;
69668;Laerm;66534;52.370;4.832;2023-03-14T01:08:29;46.72;44.35;53.83;;
69668;Laerm;66534;52.370;4.832;2023-03-14T01:09:00;56.45;45.83;73.49;;
69668;Laerm;66534;52.370;4.832;2023-03-14T01:09:30;49.91;45.88;65.39;;
69668;Laerm;66534;52.370;4.832;2023-03-14T01:10:01;50.66;44.90;57.35;;
69668;Laerm;66534;52.370;4.832;2023-03-14T01:10:31;46.41;43.88;52.98;;
69668;Laerm;66534;52.370;4.832;2023-03-14T01:11:13;50.45;45.61;58.57;;
69668;Laerm;66534;52.370;4.832;2023-03-14T01:11:50;46.46;43.21;54.99;;
69668;Laerm;66534;52.370;4.832;2023-03-14T01:12:24;48.27;44.35;60.85;;
69668;Laerm;66534;52.370;4.832;2023-03-14T01:13:08;50.44;44.57;60.16;;
69668;Laerm;66534;52.370;4.832;2023-03-14T01:13:39;48.03;43.83;56.43;;
69668;Laerm;66534;52.370;4.832;2023-03-14T01:14:10;49.33;44.99;59.77;;
69668;Laerm;66534;52.370;4.832;2023-03-14T01:14:40;54.97;47.76;69.43;;
69668;Laerm;66534;52.370;4.832;2023-03-14T01:15:17;48.51;45.93;52.94;;
69668;Laerm;66534;52.370;4.832;2023-03-14T01:15:48;51.35;45.99;66.58;;
69668;Laerm;66534;52.370;4.832;2023-03-14T01:16:20;51.45;45.93;66.95;;
69668;Laerm;66534;52.370;4.832;2023-03-14T01:16:51;46.36;43.69;56.27;;
69668;Laerm;66534;52.370;4.832;2023-03-14T01:17:21;46.23;43.77;52.45;;
69668;Laerm;66534;52.370;4.832;2023-03-14T01:17:52;45.79;43.35;54.50;;
69668;Laerm;66534;52.370;4.832;2023-03-14T01:18:22;47.53;44.24;60.29;;
69668;Laerm;66534;52.370;4.832;2023-03-14T01:18:53;48.20;44.67;62.84;;
69668;Laerm;66534;52.370;4.832;2023-03-14T01:19:24;48.14;44.78;51.35;;
69668;Laerm;66534;52.370;4.832;2023-03-14T01:19:54;46.61;42.30;64.53;;
69668;Laerm;66534;52.370;4.832;2023-03-14T01:20:28;47.78;41.63;65.68;;
69668;Laerm;66534;52.370;4.832;2023-03-14T01:20:59;46.13;42.79;58.41;;
69668;Laerm;66534;52.370;4.832;2023-03-14T01:21:32;46.43;43.76;54.74;;
69668;Laerm;66534;52.370;4.832;2023-03-14T01:22:03;46.28;41.97;60.21;;
69668;Laerm;66534;52.370;4.832;2023-03-14T01:22:33;45.65;42.20;51.98;;
69668;Laerm;66534;52.370;4.832;2023-03-14T01:23:04;44.64;42.02;50.77;;
69668;Laerm;66534;52.370;4.832;2023-03-14T01:23:34;45.51;42.62;51.65;;
69668;Laerm;66534;52.370;4.832;2023-03-14T01:24:05;45.61;43.09;49.91;;
69668;Laerm;66534;52.370;4.832;2023-03-14T01:24:37;46.49;43.24;54.30;;
69668;Laerm;66534;52.370;4.832;2023-03-14T01:25:10;47.82;44.88;54.96;;
69668;Laerm;66534;52.370;4.832;2023-03-14T01:25:41;46.28;43.93;52.58;;
69668;Laerm;66534;52.370;4.832;2023-03-14T01:26:13;49.07;44.28;62.17;;
69668;Laerm;66534;52.370;4.832;2023-03-14T01:26:44;45.57;42.36;52.52;;
69668;Laerm;66534;52.370;4.832;2023-03-14T01:27:14;49.21;44.94;61.82;;
69668;Laerm;66534;52.370;4.832;2023-03-14T01:27:45;49.27;45.46;61.29;;
69668;Laerm;66534;52.370;4.832;2023-03-14T01:28:15;47.69;42.59;54.30;;
69668;Laerm;66534;52.370;4.832;2023-03-14T01:28:47;44.78;41.77;52.28;;
69668;Laerm;66534;52.370;4.832;2023-03-14T01:29:17;44.54;41.90;48.58;;
69668;Laerm;66534;52.370;4.832;2023-03-14T01:29:48;44.99;41.74;53.21;;
69668;Laerm;66534;52.370;4.832;2023-03-14T01:30:18;45.16;41.20;52.80;;
69668;Laerm;66534;52.370;4.832;2023-03-14T01:30:48;46.34;41.16;63.09;;
69668;Laerm;66534;52.370;4.832;2023-03-14T01:31:19;44.14;41.26;51.35;;
69668;Laerm;66534;52.370;4.832;2023-03-14T01:31:49;46.61;40.29;66.68;;
69668;Laerm;66534;52.370;4.832;2023-03-14T01:32:20;43.23;40.22;49.18;;
69668;Laerm;66534;52.370;4.832;2023-03-14T01:32:50;44.28;40.68;55.21;;
69668;Laerm;66534;52.370;4.832;2023-03-14T01:33:20;56.21;48.15;74.15;;
69668;Laerm;66534;52.370;4.832;2023-03-14T01:33:51;52.57;45.69;69.58;;
69668;Laerm;66534;52.370;4.832;2023-03-14T01:34:22;47.09;42.87;63.22;;
69668;Laerm;66534;52.370;4.832;2023-03-14T01:34:52;50.39;44.93;56.96;;
69668;Laerm;66534;52.370;4.832;2023-03-14T01:35:22;53.76;46.76;69.09;;
69668;Laerm;66534;52.370;4.832;2023-03-14T01:35:53;49.84;44.69;63.74;;
69668;Laerm;66534;52.370;4.832;2023-03-14T01:36:23;48.11;45.19;55.25;;
69668;Laerm;66534;52.370;4.832;2023-03-14T01:36:54;50.56;45.22;62.10;;
69668;Laerm;66534;52.370;4.832;2023-03-14T01:37:24;51.73;47.01;62.51;;
69668;Laerm;66534;52.370;4.832;2023-03-14T01:37:55;49.97;43.23;64.66;;
69668;Laerm;66534;52.370;4.832;2023-03-14T01:38:25;46.39;42.19;54.35;;
69668;Laerm;66534;52.370;4.832;2023-03-14T01:38:56;43.94;40.91;56.10;;
69668;Laerm;66534;52.370;4.832;2023-03-14T01:39:26;43.53;40.95;54.75;;
69668;Laerm;66534;52.370;4.832;2023-03-14T01:39:58;44.38;39.95;53.11;;
69668;Laerm;66534;52.370;4.832;2023-03-14T01:40:29;41.70;39.40;47.27;;
69668;Laerm;66534;52.370;4.832;2023-03-14T01:41:00;47.18;39.88;57.82;;
69668;Laerm;66534;52.370;4.832;2023-03-14T01:41:30;46.51;43.88;51.06;;
69668;Laerm;66534;52.370;4.832;2023-03-14T01:42:01;47.32;41.84;52.60;;
69668;Laerm;66534;52.370;4.832;2023-03-14T01:42:31;48.44;44.25;52.77;;
69668;Laerm;66534;52.370;4.832;2023-03-14T01:43:14;51.70;44.91;68.37;;
69668;Laerm;66534;52.370;4.832;2023-03-14T01:43:45;46.57;41.31;59.41;;
69668;Laerm;66534;52.370;4.832;2023-03-14T01:44:16;44.52;41.32;51.70;;
69668;Laerm;66534;52.370;4.832;2023-03-14T01:44:54;43.04;40.78;48.52;;
69668;Laerm;66534;52.370;4.832;2023-03-14T01:46:44;42.32;38.42;50.28;;
69668;Laerm;66534;52.370;4.832;2023-03-14T01:47:22;45.21;40.81;55.29;;
69668;Laerm;66534;52.370;4.832;2023-03-14T01:47:54;47.65;43.71;52.41;;
69668;Laerm;66534;52.370;4.832;2023-03-14T01:48:38;46.25;41.85;53.52;;
69668;Laerm;66534;52.370;4.832;2023-03-14T01:49:37;45.07;40.70;58.09;;
69668;Laerm;66534;52.370;4.832;2023-03-14T01:50:12;45.35;40.66;54.81;;
69668;Laerm;66534;52.370;4.832;2023-03-14T01:50:44;46.75;41.58;65.05;;
69668;Laerm;66534;52.370;4.832;2023-03-14T01:51:42;47.52;42.03;59.60;;
69668;Laerm;66534;52.370;4.832;2023-03-14T01:52:47;46.78;43.78;51.75;;
69668;Laerm;66534;52.370;4.832;2023-03-14T01:53:22;47.46;42.57;59.83;;
69668;Laerm;66534;52.370;4.832;2023-03-14T01:53:59;45.08;42.26;53.40;;
69668;Laerm;66534;52.370;4.832;2023-03-14T01:54:47;46.70;43.42;51.91;;
69668;Laerm;66534;52.370;4.832;2023-03-14T01:55:23;47.30;44.40;50.80;;
69668;Laerm;66534;52.370;4.832;2023-03-14T01:55:55;47.51;44.47;52.81;;
69668;Laerm;66534;52.370;4.832;2023-03-14T01:56:27;49.80;45.63;61.62;;
69668;Laerm;66534;52.370;4.832;2023-03-14T01:57:12;47.95;44.32;54.63;;
69668;Laerm;66534;52.370;4.832;2023-03-14T01:57:48;47.41;43.02;55.83;;
69668;Laerm;66534;52.370;4.832;2023-03-14T01:58:21;46.34;42.16;54.56;;
69668;Laerm;66534;52.370;4.832;2023-03-14T01:58:52;44.73;41.65;51.24;;
69668;Laerm;66534;52.370;4.832;2023-03-14T01:59:23;44.16;41.79;50.93;;
69668;Laerm;66534;52.370;4.832;2023-03-14T01:59:58;45.50;41.77;55.95;;
69668;Laerm;66534;52.370;4.832;2023-03-14T02:00:30;47.44;40.29;64.44;;
69668;Laerm;66534;52.370;4.832;2023-03-14T02:01:01;42.58;39.43;49.28;;
69668;Laerm;66534;52.370;4.832;2023-03-14T02:01:34;42.76;39.90;48.02;;
69668;Laerm;66534;52.370;4.832;2023-03-14T02:02:07;44.46;41.23;49.46;;
69668;Laerm;66534;52.370;4.832;2023-03-14T02:03:02;47.35;42.34;60.07;;
69668;Laerm;66534;52.370;4.832;2023-03-14T02:03:40;49.62;44.74;64.79;;
69668;Laerm;66534;52.370;4.832;2023-03-14T02:04:14;47.75;44.13;54.51;;
69668;Laerm;66534;52.370;4.832;2023-03-14T02:04:46;55.10;45.21;68.72;;
69668;Laerm;66534;52.370;4.832;2023-03-14T02:05:20;51.48;43.19;66.41;;
69668;Laerm;66534;52.370;4.832;2023-03-14T02:05:53;45.71;40.73;53.20;;
69668;Laerm;66534;52.370;4.832;2023-03-14T02:06:33;44.89;40.87;54.42;;
69668;Laerm;66534;52.370;4.832;2023-03-14T02:07:10;46.60;42.55;65.78;;
69668;Laerm;66534;52.370;4.832;2023-03-14T02:07:49;45.33;42.41;52.59;;
69668;Laerm;66534;52.370;4.832;2023-03-14T02:08:21;51.45;43.28;67.63;;
69668;Laerm;66534;52.370;4.832;2023-03-14T02:08:52;51.00;44.53;67.19;;
69668;Laerm;66534;52.370;4.832;2023-03-14T02:09:22;45.51;42.57;51.46;;
69668;Laerm;66534;52.370;4.832;2023-03-14T02:09:54;48.54;44.02;61.14;;
69668;Laerm;66534;52.370;4.832;2023-03-14T02:10:31;48.02;42.42;68.02;;
69668;Laerm;66534;52.370;4.832;2023-03-14T02:11:02;46.40;43.46;52.20;;
69668;Laerm;66534;52.370;4.832;2023-03-14T02:11:32;50.84;46.91;56.58;;
69668;Laerm;66534;52.370;4.832;2023-03-14T02:12:03;49.49;44.31;63.28;;
69668;Laerm;66534;52.370;4.832;2023-03-14T02:12:35;50.56;43.33;61.68;;
69668;Laerm;66534;52.370;4.832;2023-03-14T02:13:06;52.32;45.60;64.84;;
69668;Laerm;66534;52.370;4.832;2023-03-14T02:13:37;46.22;42.33;54.32;;
69668;Laerm;66534;52.370;4.832;2023-03-14T02:14:10;44.17;41.02;51.18;;
69668;Laerm;66534;52.370;4.832;2023-03-14T02:14:44;46.32;43.46;55.20;;
69668;Laerm;66534;52.370;4.832;2023-03-14T02:15:18;44.67;40.63;54.45;;
69668;Laerm;66534;52.370;4.832;2023-03-14T02:15:49;44.71;42.16;51.75;;
69668;Laerm;66534;52.370;4.832;2023-03-14T02:16:20;44.83;41.53;55.40;;
69668;Laerm;66534;52.370;4.832;2023-03-14T02:16:50;43.34;40.46;46.93;;
69668;Laerm;66534;52.370;4.832;2023-03-14T02:17:22;44.21;40.97;54.58;;
69668;Laerm;66534;52.370;4.832;2023-03-14T02:17:53;44.53;41.35;50.87;;
69668;Laerm;66534;52.370;4.832;2023-03-14T02:18:24;42.13;39.80;51.34;;
69668;Laerm;66534;52.370;4.832;2023-03-14T02:18:55;41.82;39.73;48.41;;
69668;Laerm;66534;52.370;4.832;2023-03-14T02:20:42;45.65;40.21;58.42;;
69668;Laerm;66534;52.370;4.832;2023-03-14T02:22:05;47.51;40.86;58.86;;
69668;Laerm;66534;52.370;4.832;2023-03-14T02:22:40;43.18;40.10;52.74;;
69668;Laerm;66534;52.370;4.832;2023-03-14T02:23:42;43.21;40.19;52.33;;
69668;Laerm;66534;52.370;4.832;2023-03-14T02:24:30;45.71;41.65;50.45;;
69668;Laerm;66534;52.370;4.832;2023-03-14T02:26:01;47.68;42.08;54.74;;
69668;Laerm;66534;52.370;4.832;2023-03-14T02:26:42;54.92;46.14;68.12;;
69668;Laerm;66534;52.370;4.832;2023-03-14T02:27:16;47.35;43.37;57.39;;
69668;Laerm;66534;52.370;4.832;2023-03-14T02:27:47;48.10;44.94;55.74;;
69668;Laerm;66534;52.370;4.832;2023-03-14T02:28:18;47.57;45.00;52.37;;
69668;Laerm;66534;52.370;4.832;2023-03-14T02:28:49;48.96;43.28;68.00;;
69668;Laerm;66534;52.370;4.832;2023-03-14T02:29:20;44.51;42.13;54.16;;
69668;Laerm;66534;52.370;4.832;2023-03-14T02:29:54;46.24;42.62;60.75;;
69668;Laerm;66534;52.370;4.832;2023-03-14T02:30:29;45.05;42.45;50.97;;
69668;Laerm;66534;52.370;4.832;2023-03-14T02:30:59;48.17;43.19;58.46;;
69668;Laerm;66534;52.370;4.832;2023-03-14T02:31:30;54.98;49.83;63.82;;
69668;Laerm;66534;52.370;4.832;2023-03-14T02:32:00;54.27;45.19;68.19;;
69668;Laerm;66534;52.370;4.832;2023-03-14T02:32:34;46.85;43.61;50.86;;
69668;Laerm;66534;52.370;4.832;2023-03-14T02:33:14;49.39;43.37;65.83;;
69668;Laerm;66534;52.370;4.832;2023-03-14T02:33:46;52.58;42.99;69.60;;
69668;Laerm;66534;52.370;4.832;2023-03-14T02:34:16;50.32;44.34;61.58;;
69668;Laerm;66534;52.370;4.832;2023-03-14T02:34:50;46.15;40.12;55.35;;
69668;Laerm;66534;52.370;4.832;2023-03-14T02:35:24;42.33;40.12;50.72;;
69668;Laerm;66534;52.370;4.832;2023-03-14T02:36:04;43.03;40.35;49.67;;
69668;Laerm;66534;52.370;4.832;2023-03-14T02:36:36;43.12;40.28;53.83;;
69668;Laerm;66534;52.370;4.832;2023-03-14T02:37:06;47.34;40.31;58.02;;
69668;Laerm;66534;52.370;4.832;2023-03-14T02:37:51;44.78;40.36;60.13;;
69668;Laerm;66534;52.370;4.832;2023-03-14T02:38:27;48.81;39.98;65.78;;
69668;Laerm;66534;52.370;4.832;2023-03-14T02:39:12;42.98;40.18;48.53;;
69668;Laerm;66534;52.370;4.832;2023-03-14T02:39:45;45.88;41.71;54.31;;
69668;Laerm;66534;52.370;4.832;2023-03-14T02:40:15;42.52;40.04;48.99;;
69668;Laerm;66534;52.370;4.832;2023-03-14T02:40:46;42.96;39.90;50.07;;
69668;Laerm;66534;52.370;4.832;2023-03-14T02:41:17;48.47;43.37;54.74;;
69668;Laerm;66534;52.370;4.832;2023-03-14T02:41:47;49.34;44.62;65.34;;
69668;Laerm;66534;52.370;4.832;2023-03-14T02:42:19;46.19;42.12;53.50;;
69668;Laerm;66534;52.370;4.832;2023-03-14T02:42:50;44.10;40.82;55.98;;
69668;Laerm;66534;52.370;4.832;2023-03-14T02:43:21;46.51;41.72;60.59;;
69668;Laerm;66534;52.370;4.832;2023-03-14T02:43:51;43.71;40.53;50.77;;
69668;Laerm;66534;52.370;4.832;2023-03-14T02:44:21;45.23;42.53;51.74;;
69668;Laerm;66534;52.370;4.832;2023-03-14T02:44:57;45.97;41.41;55.22;;
69668;Laerm;66534;52.370;4.832;2023-03-14T02:46:11;41.99;38.89;47.30;;
69668;Laerm;66534;52.370;4.832;2023-03-14T02:46:42;46.15;40.64;58.59;;
69668;Laerm;66534;52.370;4.832;2023-03-14T02:47:13;44.60;41.23;51.40;;
69668;Laerm;66534;52.370;4.832;2023-03-14T02:47:50;49.21;45.59;53.18;;
69668;Laerm;66534;52.370;4.832;2023-03-14T02:48:26;48.81;43.63;60.42;;
69668;Laerm;66534;52.370;4.832;2023-03-14T02:49:03;49.36;41.45;67.21;;
69668;Laerm;66534;52.370;4.832;2023-03-14T02:49:33;45.91;40.93;50.50;;
69668;Laerm;66534;52.370;4.832;2023-03-14T02:50:12;46.30;41.51;57.21;;
69668;Laerm;66534;52.370;4.832;2023-03-14T02:50:45;47.29;41.94;57.54;;
69668;Laerm;66534;52.370;4.832;2023-03-14T02:51:16;49.45;44.68;53.27;;
69668;Laerm;66534;52.370;4.832;2023-03-14T02:51:47;48.04;41.07;54.61;;
69668;Laerm;66534;52.370;4.832;2023-03-14T02:52:18;43.76;40.40;51.09;;
69668;Laerm;66534;52.370;4.832;2023-03-14T02:52:48;47.68;43.79;53.47;;
69668;Laerm;66534;52.370;4.832;2023-03-14T02:53:23;44.66;41.28;49.05;;
69668;Laerm;66534;52.370;4.832;2023-03-14T02:53:54;44.98;39.39;51.66;;
69668;Laerm;66534;52.370;4.832;2023-03-14T02:54:24;49.79;46.45;54.71;;
69668;Laerm;66534;52.370;4.832;2023-03-14T02:54:55;53.66;46.50;66.57;;
69668;Laerm;66534;52.370;4.832;2023-03-14T02:55:26;46.33;43.10;57.43;;
69668;Laerm;66534;52.370;4.832;2023-03-14T02:55:57;49.76;41.37;64.53;;
69668;Laerm;66534;52.370;4.832;2023-03-14T02:56:28;43.43;40.87;49.55;;
69668;Laerm;66534;52.370;4.832;2023-03-14T02:56:58;46.91;42.75;56.10;;
69668;Laerm;66534;52.370;4.832;2023-03-14T02:57:28;50.98;46.87;61.96;;
69668;Laerm;66534;52.370;4.832;2023-03-14T02:57:59;48.83;44.83;58.28;;
69668;Laerm;66534;52.370;4.832;2023-03-14T02:58:30;46.44;41.18;64.43;;
69668;Laerm;66534;52.370;4.832;2023-03-14T02:59:04;45.53;41.91;53.89;;
69668;Laerm;66534;52.370;4.832;2023-03-14T02:59:35;45.85;40.68;54.38;;
69668;Laerm;66534;52.370;4.832;2023-03-14T03:00:06;49.27;43.86;60.18;;
69668;Laerm;66534;52.370;4.832;2023-03-14T03:00:37;43.84;39.73;54.18;;
69668;Laerm;66534;52.370;4.832;2023-03-14T03:01:07;45.16;40.56;55.48;;
69668;Laerm;66534;52.370;4.832;2023-03-14T03:01:41;43.15;39.20;56.74;;
69668;Laerm;66534;52.370;4.832;2023-03-14T03:02:14;42.60;39.46;52.29;;
69668;Laerm;66534;52.370;4.832;2023-03-14T03:02:45;43.45;39.36;59.88;;
69668;Laerm;66534;52.370;4.832;2023-03-14T03:03:16;44.03;40.16;61.87;;
69668;Laerm;66534;52.370;4.832;2023-03-14T03:03:46;41.55;38.79;49.90;;
69668;Laerm;66534;52.370;4.832;2023-03-14T03:04:17;44.06;39.37;57.61;;
69668;Laerm;66534;52.370;4.832;2023-03-14T03:04:47;44.35;40.25;50.92;;
69668;Laerm;66534;52.370;4.832;2023-03-14T03:05:18;43.32;39.22;56.96;;
69668;Laerm;66534;52.370;4.832;2023-03-14T03:05:52;42.80;40.00;52.87;;
69668;Laerm;66534;52.370;4.832;2023-03-14T03:06:23;42.30;40.01;50.46;;